createdAt,value
2018-06-01T00:00:20.078Z,99.90
2018-06-01T00:02:47.557Z,99.90
2018-06-01T00:05:15.807Z,99.90
2018-06-01T00:07:43.275Z,99.90
2018-06-01T00:10:10.780Z,99.90
2018-06-01T00:12:38.507Z,99.90
2018-06-01T00:15:06.269Z,99.90
2018-06-01T00:17:33.751Z,99.90
2018-06-01T00:20:01.214Z,99.90
2018-06-01T00:22:28.950Z,99.90
2018-06-01T00:24:56.410Z,99.90
2018-06-01T00:27:23.888Z,99.90
2018-06-01T00:29:51.350Z,99.90
2018-06-01T00:32:19.086Z,99.90
2018-06-01T00:34:48.058Z,99.90
2018-06-01T00:37:15.536Z,99.90
2018-06-01T00:39:43.310Z,99.90
2018-06-01T00:42:11.076Z,99.90
2018-06-01T00:44:38.831Z,99.90
2018-06-01T00:47:07.832Z,99.90
2018-06-01T00:49:36.807Z,99.90
2018-06-01T00:52:04.279Z,99.90
2018-06-01T00:54:45.190Z,99.90
2018-06-01T00:57:13.414Z,99.90
2018-06-01T00:59:41.090Z,99.90
2018-06-01T01:02:08.559Z,99.90
2018-06-01T01:04:36.018Z,99.90
2018-06-01T01:07:03.498Z,99.90
2018-06-01T01:09:30.963Z,99.90
2018-06-01T01:11:58.439Z,99.90
2018-06-01T01:14:25.907Z,99.90
2018-06-01T01:16:53.383Z,99.90
2018-06-01T01:19:20.848Z,99.90
2018-06-01T01:21:48.325Z,99.90
2018-06-01T01:24:15.899Z,99.90
2018-06-01T01:26:43.362Z,99.90
2018-06-01T01:29:11.600Z,99.90
2018-06-01T01:31:39.063Z,99.90
2018-06-01T01:34:06.659Z,99.90
2018-06-01T01:36:34.142Z,99.90
2018-06-01T01:39:01.614Z,99.90
2018-06-01T01:41:29.105Z,99.90
2018-06-01T01:43:58.074Z,99.90
2018-06-01T01:46:25.621Z,99.90
2018-06-01T01:48:53.082Z,99.90
2018-06-01T01:51:20.707Z,99.90
2018-06-01T01:53:49.171Z,99.90
2018-06-01T01:56:18.138Z,99.90
2018-06-01T01:58:45.622Z,99.90
2018-06-01T02:01:13.382Z,99.90
2018-06-01T02:03:41.075Z,99.90
2018-06-01T02:06:08.535Z,99.90
2018-06-01T02:08:36.003Z,99.90
2018-06-01T02:11:03.522Z,99.90
2018-06-01T02:13:31.902Z,99.90
2018-06-01T02:16:00.898Z,99.90
2018-06-01T02:18:28.359Z,99.90
2018-06-01T02:20:57.322Z,99.90
2018-06-01T02:23:24.794Z,99.90
2018-06-01T02:25:52.419Z,99.90
2018-06-01T02:28:19.882Z,99.90
2018-06-01T02:30:47.492Z,99.90
2018-06-01T02:33:14.966Z,99.90
2018-06-01T02:35:42.423Z,99.90
2018-06-01T02:38:10.102Z,99.90
2018-06-01T02:40:37.568Z,99.90
2018-06-01T02:43:05.039Z,99.90
2018-06-01T02:45:32.538Z,99.90
2018-06-01T02:48:01.523Z,99.90
2018-06-01T02:50:29.306Z,99.90
2018-06-01T02:52:58.308Z,99.90
2018-06-01T02:55:25.838Z,99.90
2018-06-01T02:57:53.303Z,99.90
2018-06-01T03:00:20.779Z,99.90
2018-06-01T03:02:48.438Z,99.90
2018-06-01T03:05:17.423Z,99.90
2018-06-01T03:07:44.893Z,99.90
2018-06-01T03:10:13.862Z,99.90
2018-06-01T03:12:41.326Z,99.90
2018-06-01T03:15:08.803Z,99.90
2018-06-01T03:17:37.061Z,99.90
2018-06-01T03:20:04.637Z,99.90
2018-06-01T03:22:32.120Z,99.90
2018-06-01T03:25:00.346Z,99.90
2018-06-01T03:27:27.903Z,99.90
2018-06-01T03:29:55.378Z,99.90
2018-06-01T03:32:22.865Z,99.90
2018-06-01T03:34:50.330Z,99.90
2018-06-01T03:37:18.079Z,99.90
2018-06-01T03:39:45.550Z,99.90
2018-06-01T03:42:13.151Z,99.90
2018-06-01T03:44:40.622Z,99.90
2018-06-01T03:47:08.140Z,99.90
2018-06-01T03:49:35.626Z,99.90
2018-06-01T03:52:03.130Z,99.90
2018-06-01T03:54:30.622Z,99.90
2018-06-01T03:56:58.122Z,99.90
2018-06-01T03:59:25.603Z,99.90
2018-06-01T04:01:53.073Z,99.90
2018-06-01T04:04:20.543Z,99.90
2018-06-01T04:06:48.803Z,99.90
2018-06-01T04:09:16.582Z,99.90
2018-06-01T04:11:44.070Z,99.90
2018-06-01T04:14:11.721Z,99.90
2018-06-01T04:16:39.188Z,99.90
2018-06-01T04:19:06.672Z,99.90
2018-06-01T04:21:34.148Z,99.90
2018-06-01T04:24:01.622Z,99.90
2018-06-01T04:26:30.627Z,99.90
2018-06-01T04:28:58.141Z,99.90
2018-06-01T04:31:25.602Z,99.90
2018-06-01T04:33:53.310Z,99.90
2018-06-01T04:36:20.826Z,99.90
2018-06-01T04:38:48.313Z,99.90
2018-06-01T04:41:15.788Z,99.90
2018-06-01T04:43:44.046Z,99.90
2018-06-01T04:46:11.533Z,99.90
2018-06-01T04:48:39.794Z,99.90
2018-06-01T04:51:07.287Z,99.90
2018-06-01T04:53:34.765Z,99.90
2018-06-01T04:56:02.360Z,99.90
2018-06-01T04:58:29.773Z,99.90
2018-06-01T05:00:57.280Z,99.90
2018-06-01T05:03:24.893Z,99.90
2018-06-01T05:05:52.554Z,99.90
2018-06-01T05:08:20.227Z,99.90
2018-06-01T05:10:47.710Z,99.90
2018-06-01T05:13:15.205Z,99.90
2018-06-01T05:15:43.479Z,99.90
2018-06-01T05:18:10.996Z,99.90
2018-06-01T05:20:38.538Z,99.90
2018-06-01T05:23:06.098Z,99.90
2018-06-01T05:25:33.613Z,99.90
2018-06-01T05:28:01.154Z,99.90
2018-06-01T05:30:28.625Z,99.90
2018-06-01T05:32:56.291Z,99.90
2018-06-01T05:35:24.114Z,99.90
2018-06-01T05:37:52.472Z,99.90
2018-06-01T05:40:20.167Z,99.90
2018-06-01T05:42:47.801Z,99.90
2018-06-01T05:45:15.460Z,99.90
2018-06-01T05:47:43.050Z,99.90
2018-06-01T05:50:10.660Z,99.90
2018-06-01T05:52:38.477Z,99.90
2018-06-01T05:55:05.947Z,99.90
2018-06-01T05:57:33.438Z,99.90
2018-06-01T06:00:01.714Z,99.90
2018-06-01T06:02:29.986Z,99.90
2018-06-01T06:04:58.223Z,99.90
2018-06-01T06:07:25.720Z,99.90
2018-06-01T06:09:53.376Z,99.90
2018-06-01T06:12:20.979Z,99.90
2018-06-01T06:14:48.475Z,99.90
2018-06-01T06:17:15.939Z,99.90
2018-06-01T06:19:43.425Z,99.90
2018-06-01T06:22:10.953Z,99.90
2018-06-01T06:24:38.428Z,99.90
2018-06-01T06:27:05.958Z,99.90
2018-06-01T06:29:33.452Z,99.90
2018-06-01T06:32:01.079Z,99.90
2018-06-01T06:34:28.571Z,99.90
2018-06-01T06:36:56.097Z,99.90
2018-06-01T06:39:23.578Z,99.90
2018-06-01T06:41:51.138Z,99.90
2018-06-01T06:44:18.718Z,99.90
2018-06-01T06:46:46.199Z,99.90
2018-06-01T06:49:13.849Z,99.90
2018-06-01T06:51:42.091Z,99.90
2018-06-01T06:54:09.773Z,99.90
2018-06-01T06:56:37.535Z,99.90
2018-06-01T06:59:05.355Z,99.90
2018-06-01T07:01:32.991Z,99.90
2018-06-01T07:04:01.232Z,99.90
2018-06-01T07:06:28.819Z,99.90
2018-06-01T07:08:56.364Z,99.90
2018-06-01T07:11:24.124Z,99.90
2018-06-01T07:13:51.606Z,99.90
2018-06-01T07:16:19.267Z,99.90
2018-06-01T07:18:46.792Z,99.90
2018-06-01T07:21:14.259Z,99.90
2018-06-01T07:23:41.717Z,99.90
2018-06-01T07:26:09.195Z,99.90
2018-06-01T07:28:36.674Z,99.90
2018-06-01T07:31:04.152Z,99.90
2018-06-01T07:33:31.617Z,99.90
2018-06-01T07:35:59.095Z,99.90
2018-06-01T07:38:26.814Z,99.90
2018-06-01T07:40:54.294Z,99.90
2018-06-01T07:43:21.845Z,99.90
2018-06-01T07:45:49.319Z,99.90
2018-06-01T07:48:16.915Z,99.90
2018-06-01T07:50:44.607Z,99.90
2018-06-01T07:53:12.144Z,99.90
2018-06-01T07:55:39.576Z,99.90
2018-06-01T07:58:07.355Z,99.90
2018-06-01T08:00:35.054Z,99.90
2018-06-01T08:03:02.742Z,99.90
2018-06-01T08:05:30.359Z,99.90
2018-06-01T08:07:58.123Z,99.90
2018-06-01T08:10:25.732Z,99.90
2018-06-01T08:12:53.206Z,99.90
2018-06-01T08:15:20.750Z,99.90
2018-06-01T08:17:48.486Z,99.90
2018-06-01T08:20:16.047Z,99.90
2018-06-01T08:22:43.710Z,99.90
2018-06-01T08:25:11.246Z,99.90
2018-06-01T08:27:38.721Z,99.90
2018-06-01T08:30:06.471Z,99.90
2018-06-01T08:32:34.136Z,99.90
2018-06-01T08:35:01.689Z,99.90
2018-06-01T08:37:29.187Z,99.90
2018-06-01T08:39:56.647Z,99.90
2018-06-01T08:42:24.116Z,99.90
2018-06-01T08:44:51.792Z,99.90
2018-06-01T08:47:19.265Z,99.90
2018-06-01T08:49:46.722Z,99.90
2018-06-01T08:52:14.190Z,99.90
2018-06-01T08:54:41.667Z,99.90
2018-06-01T08:57:09.126Z,99.90
2018-06-01T08:59:36.602Z,99.90
2018-06-01T09:02:04.273Z,99.90
2018-06-01T09:04:31.768Z,99.90
2018-06-01T09:06:59.218Z,99.90
2018-06-01T09:09:26.725Z,99.90
2018-06-01T09:11:54.183Z,99.90
2018-06-01T09:14:21.950Z,99.90
2018-06-01T09:16:49.491Z,99.90
2018-06-01T09:19:16.910Z,99.90
2018-06-01T09:21:44.374Z,99.90
2018-06-01T09:24:11.929Z,99.90
2018-06-01T09:26:39.386Z,99.90
2018-06-01T09:29:06.850Z,99.90
2018-06-01T09:31:34.314Z,99.90
2018-06-01T09:34:01.787Z,99.90
2018-06-01T09:36:29.251Z,99.90
2018-06-01T09:38:56.723Z,99.90
2018-06-01T09:41:24.181Z,99.90
2018-06-01T09:43:51.900Z,99.90
2018-06-01T09:46:19.572Z,99.90
2018-06-01T09:48:47.200Z,99.90
2018-06-01T09:51:14.737Z,99.90
2018-06-01T09:53:42.198Z,99.90
2018-06-01T09:56:09.664Z,99.90
2018-06-01T09:58:37.183Z,99.90
2018-06-01T10:01:10.516Z,99.90
2018-06-01T10:03:38.170Z,99.90
2018-06-01T10:06:05.643Z,99.90
2018-06-01T10:08:33.314Z,99.90
2018-06-01T10:11:06.465Z,99.90
2018-06-01T10:13:34.148Z,99.90
2018-06-01T10:16:01.911Z,99.90
2018-06-01T10:18:29.595Z,99.90
2018-06-01T10:20:57.138Z,99.90
2018-06-01T10:23:24.906Z,99.90
2018-06-01T10:25:52.366Z,99.90
2018-06-01T10:28:19.827Z,99.90
2018-06-01T10:30:47.579Z,99.90
2018-06-01T10:33:15.062Z,99.90
2018-06-01T10:35:42.708Z,99.90
2018-06-01T10:38:10.173Z,99.90
2018-06-01T10:40:37.671Z,99.90
2018-06-01T10:43:05.183Z,99.90
2018-06-01T10:45:32.654Z,99.90
2018-06-01T10:48:00.255Z,99.90
2018-06-01T10:50:28.015Z,99.90
2018-06-01T10:52:55.543Z,99.90
2018-06-01T10:55:23.014Z,99.90
2018-06-01T10:57:50.896Z,99.90
2018-06-01T11:00:18.534Z,99.90
2018-06-01T11:02:46.074Z,99.90
2018-06-01T11:05:13.839Z,99.90
2018-06-01T11:07:41.640Z,99.90
2018-06-01T11:10:09.107Z,99.90
2018-06-01T11:12:36.580Z,99.90
2018-06-01T11:15:04.282Z,99.90
2018-06-01T11:17:31.970Z,99.90
2018-06-01T11:19:59.507Z,99.90
2018-06-01T11:22:26.982Z,99.90
2018-06-01T11:24:54.646Z,99.90
2018-06-01T11:27:22.127Z,99.90
2018-06-01T11:29:49.578Z,99.90
2018-06-01T11:32:17.125Z,99.90
2018-06-01T11:34:44.536Z,99.90
2018-06-01T11:37:12.007Z,99.90
2018-06-01T11:39:39.787Z,99.90
2018-06-01T11:42:07.247Z,99.90
2018-06-01T11:44:34.899Z,99.90
2018-06-01T11:47:02.473Z,99.90
2018-06-01T11:49:29.952Z,99.90
2018-06-01T11:51:57.612Z,99.90
2018-06-01T11:54:25.144Z,99.90
2018-06-01T11:56:52.615Z,99.90
2018-06-01T11:59:20.077Z,99.90
2018-06-01T12:01:47.833Z,99.90
2018-06-01T12:04:15.327Z,99.90
2018-06-01T12:06:43.024Z,99.90
2018-06-01T12:09:10.506Z,99.90
2018-06-01T12:11:37.974Z,96.50
2018-06-01T12:14:06.954Z,97.30
2018-06-01T12:16:34.442Z,97.00
2018-06-01T12:19:02.035Z,95.20
2018-06-01T12:21:29.562Z,92.10
2018-06-01T12:23:57.039Z,81.80
2018-06-01T12:26:25.394Z,71.90
2018-06-01T12:28:53.094Z,71.90
2018-06-01T12:31:20.706Z,71.60
2018-06-01T12:33:48.170Z,69.10
2018-06-01T12:36:15.943Z,67.30
2018-06-01T12:38:43.704Z,63.60
2018-06-01T12:41:11.166Z,60.80
2018-06-01T12:43:38.640Z,60.60
2018-06-01T12:46:06.131Z,57.50
2018-06-01T12:48:33.603Z,58.60
2018-06-01T12:51:01.073Z,56.80
2018-06-01T12:53:28.566Z,60.00
2018-06-01T12:55:56.978Z,60.50
2018-06-01T12:58:24.606Z,60.40
2018-06-01T13:00:52.358Z,62.30
2018-06-01T13:03:20.122Z,60.40
2018-06-01T13:05:47.586Z,59.90
2018-06-01T13:08:15.062Z,64.10
2018-06-01T13:10:42.807Z,66.20
2018-06-01T13:13:10.562Z,68.30
2018-06-01T13:15:39.534Z,71.20
2018-06-01T13:18:07.330Z,72.00
2018-06-01T13:20:36.394Z,74.80
2018-06-01T13:23:04.700Z,76.20
2018-06-01T13:25:32.182Z,76.20
2018-06-01T13:27:59.771Z,78.00
2018-06-01T13:30:27.383Z,80.90
2018-06-01T13:32:55.154Z,86.60
2018-06-01T13:35:22.857Z,85.60
2018-06-01T13:37:51.090Z,83.70
2018-06-01T13:40:18.651Z,80.20
2018-06-01T13:42:46.126Z,77.50
2018-06-01T13:45:13.663Z,72.50
2018-06-01T13:47:42.710Z,66.30
2018-06-01T13:50:10.349Z,66.30
2018-06-01T13:52:38.651Z,65.70
2018-06-01T13:55:06.170Z,65.60
2018-06-01T13:57:33.657Z,67.10
2018-06-01T14:00:01.148Z,69.10
2018-06-01T14:02:28.605Z,72.70
2018-06-01T14:04:56.075Z,76.00
2018-06-01T14:07:23.542Z,81.00
2018-06-01T14:09:51.011Z,84.70
2018-06-01T14:12:18.781Z,87.30
2018-06-01T14:14:46.247Z,90.10
2018-06-01T14:17:13.711Z,91.80
2018-06-01T14:19:41.207Z,92.80
2018-06-01T14:22:08.829Z,93.10
2018-06-01T14:24:36.290Z,91.90
2018-06-01T14:27:03.762Z,92.00
2018-06-01T14:29:31.231Z,92.90
2018-06-01T14:31:58.751Z,92.80
2018-06-01T14:34:26.510Z,93.60
2018-06-01T14:36:53.978Z,93.20
2018-06-01T14:39:21.447Z,93.90
2018-06-01T14:41:48.915Z,96.40
2018-06-01T14:44:16.386Z,99.40
2018-06-01T14:46:43.858Z,99.90
2018-06-01T14:49:11.482Z,99.90
2018-06-01T14:51:38.960Z,99.90
2018-06-01T14:54:07.196Z,99.90
2018-06-01T14:56:34.654Z,99.90
2018-06-01T14:59:02.126Z,99.90
2018-06-01T15:01:29.589Z,99.90
2018-06-01T15:03:57.191Z,99.90
2018-06-01T15:06:24.693Z,99.90
2018-06-01T15:08:53.083Z,99.90
2018-06-01T15:11:20.839Z,99.90
2018-06-01T15:13:48.304Z,99.90
2018-06-01T15:16:16.220Z,99.90
2018-06-01T15:18:43.828Z,99.90
2018-06-01T15:21:11.286Z,99.90
2018-06-01T15:23:38.751Z,99.90
2018-06-01T15:26:06.210Z,99.90
2018-06-01T15:28:33.795Z,99.90
2018-06-01T15:31:02.031Z,99.90
2018-06-01T15:33:29.515Z,99.90
2018-06-01T15:35:57.191Z,99.90
2018-06-01T15:38:24.657Z,99.90
2018-06-01T15:40:52.960Z,99.90
2018-06-01T15:43:21.178Z,99.90
2018-06-01T15:45:48.663Z,99.90
2018-06-01T15:48:16.257Z,99.90
2018-06-01T15:50:43.868Z,99.90
2018-06-01T15:53:11.348Z,99.90
2018-06-01T15:55:39.087Z,99.90
2018-06-01T15:58:06.851Z,99.90
2018-06-01T16:00:34.614Z,99.90
2018-06-01T16:03:02.314Z,99.90
2018-06-01T16:05:29.839Z,99.90
2018-06-01T16:07:57.300Z,99.90
2018-06-01T16:10:24.775Z,99.90
2018-06-01T16:12:52.316Z,99.90
2018-06-01T16:15:19.790Z,99.90
2018-06-01T16:17:48.070Z,99.90
2018-06-01T16:20:15.811Z,99.90
2018-06-01T16:22:43.575Z,99.90
2018-06-01T16:25:11.259Z,99.90
2018-06-01T16:27:38.735Z,99.90
2018-06-01T16:30:06.259Z,99.90
2018-06-01T16:32:33.726Z,99.90
2018-06-01T16:35:01.191Z,99.90
2018-06-01T16:37:28.950Z,99.90
2018-06-01T16:39:56.445Z,99.90
2018-06-01T16:42:24.142Z,99.90
2018-06-01T16:44:51.614Z,99.90
2018-06-01T16:47:19.086Z,99.90
2018-06-01T16:49:46.554Z,99.90
2018-06-01T16:52:14.305Z,99.90
2018-06-01T16:54:42.067Z,99.90
2018-06-01T16:57:09.606Z,99.90
2018-06-01T16:59:37.205Z,99.90
2018-06-01T17:02:05.441Z,99.90
2018-06-01T17:04:32.907Z,99.90
2018-06-01T17:07:00.595Z,99.90
2018-06-01T17:09:28.062Z,99.90
2018-06-01T17:11:55.530Z,99.90
2018-06-01T17:14:23.270Z,99.90
2018-06-01T17:16:51.038Z,99.90
2018-06-01T17:19:18.716Z,99.90
2018-06-01T17:21:46.416Z,99.90
2018-06-01T17:24:14.023Z,99.90
2018-06-01T17:26:41.711Z,99.90
2018-06-01T17:29:10.170Z,99.90
2018-06-01T17:31:37.637Z,99.90
2018-06-01T17:34:05.395Z,99.90
2018-06-01T17:36:33.170Z,99.90
2018-06-01T17:39:00.679Z,99.90
2018-06-01T17:41:28.134Z,99.90
2018-06-01T17:43:55.599Z,99.90
2018-06-01T17:46:23.079Z,99.90
2018-06-01T17:48:50.557Z,99.90
2018-06-01T17:51:18.130Z,99.90
2018-06-01T17:53:45.619Z,99.90
2018-06-01T17:56:13.094Z,99.90
2018-06-01T17:58:40.586Z,99.90
2018-06-01T18:01:08.072Z,99.90
2018-06-01T18:03:35.535Z,99.90
2018-06-01T18:06:03.020Z,99.90
2018-06-01T18:08:30.489Z,99.90
2018-06-01T18:10:58.102Z,99.90
2018-06-01T18:13:25.576Z,99.90
2018-06-01T18:15:53.103Z,99.90
2018-06-01T18:18:20.871Z,99.90
2018-06-01T18:20:48.363Z,99.90
2018-06-01T18:23:15.851Z,99.90
2018-06-01T18:25:43.315Z,99.90
2018-06-01T18:28:10.786Z,99.90
2018-06-01T18:30:38.267Z,99.90
2018-06-01T18:33:05.758Z,99.90
2018-06-01T18:35:33.449Z,99.90
2018-06-01T18:38:00.922Z,99.90
2018-06-01T18:40:28.618Z,99.90
2018-06-01T18:42:56.375Z,99.90
2018-06-01T18:45:23.854Z,99.90
2018-06-01T18:47:51.963Z,99.90
2018-06-01T18:50:19.457Z,99.90
2018-06-01T18:52:46.951Z,99.90
2018-06-01T18:55:15.207Z,99.90
2018-06-01T18:57:42.682Z,99.90
2018-06-01T19:00:10.159Z,99.90
2018-06-01T19:02:37.642Z,99.90
2018-06-01T19:05:05.146Z,99.90
2018-06-01T19:07:32.662Z,99.90
2018-06-01T19:10:00.130Z,99.90
2018-06-01T19:12:27.647Z,99.90
2018-06-01T19:14:55.192Z,99.90
2018-06-01T19:17:23.468Z,99.90
2018-06-01T19:19:50.941Z,99.90
2018-06-01T19:22:18.418Z,99.90
2018-06-01T19:24:45.919Z,99.90
2018-06-01T19:27:13.382Z,99.90
2018-06-01T19:29:41.159Z,99.90
2018-06-01T19:32:08.666Z,99.90
2018-06-01T19:34:36.335Z,99.90
2018-06-01T19:37:03.768Z,99.90
2018-06-01T19:39:31.247Z,99.90
2018-06-01T19:41:58.769Z,99.90
2018-06-01T19:44:26.264Z,99.90
2018-06-01T19:46:53.726Z,99.90
2018-06-01T19:49:21.426Z,99.90
2018-06-01T19:51:48.899Z,99.90
2018-06-01T19:54:16.545Z,99.90
2018-06-01T19:56:44.016Z,99.90
2018-06-01T19:59:11.549Z,99.90
2018-06-01T20:01:39.327Z,99.90
2018-06-01T20:04:08.291Z,99.90
2018-06-01T20:06:36.099Z,99.90
2018-06-01T20:09:03.587Z,99.90
2018-06-01T20:11:31.042Z,99.90
2018-06-01T20:13:58.727Z,99.90
2018-06-01T20:16:26.239Z,99.90
2018-06-01T20:18:53.789Z,99.90
2018-06-01T20:21:21.265Z,99.90
2018-06-01T20:23:49.496Z,99.90
2018-06-01T20:26:16.960Z,99.90
2018-06-01T20:28:44.435Z,99.90
2018-06-01T20:31:11.901Z,99.90
2018-06-01T20:33:39.576Z,99.90
2018-06-01T20:36:07.058Z,99.90
2018-06-01T20:38:34.525Z,99.90
2018-06-01T20:41:02.000Z,99.90
2018-06-01T20:43:29.512Z,99.90
2018-06-01T20:45:57.747Z,99.90
2018-06-01T20:48:25.262Z,99.90
2018-06-01T20:50:52.742Z,99.90
2018-06-01T20:53:20.233Z,99.90
2018-06-01T20:55:48.013Z,99.90
2018-06-01T20:58:17.012Z,99.90
2018-06-01T21:00:44.771Z,99.90
2018-06-01T21:03:13.813Z,99.90
2018-06-01T21:05:41.311Z,99.90
2018-06-01T21:08:08.790Z,99.90
2018-06-01T21:10:36.269Z,99.90
2018-06-01T21:13:04.503Z,99.90
2018-06-01T21:15:31.979Z,99.90
2018-06-01T21:18:00.962Z,99.90
2018-06-01T21:20:28.438Z,99.90
2018-06-01T21:22:55.918Z,99.90
2018-06-01T21:25:23.382Z,99.90
2018-06-01T21:27:51.871Z,99.90
2018-06-01T21:30:19.336Z,99.90
2018-06-01T21:32:46.875Z,99.90
2018-06-01T21:35:14.416Z,99.90
2018-06-01T21:37:42.791Z,99.90
2018-06-01T21:40:11.783Z,99.90
2018-06-01T21:42:40.758Z,99.90
2018-06-01T21:45:08.233Z,99.90
2018-06-01T21:47:35.706Z,99.90
2018-06-01T21:50:03.197Z,99.90
2018-06-01T21:52:30.923Z,99.90
2018-06-01T21:54:58.416Z,99.90
2018-06-01T21:57:25.904Z,99.90
2018-06-01T21:59:53.374Z,99.90
2018-06-01T22:02:20.860Z,99.90
2018-06-01T22:04:48.514Z,99.90
2018-06-01T22:07:17.510Z,99.90
2018-06-01T22:09:46.520Z,99.90
2018-06-01T22:12:13.982Z,99.90
2018-06-01T22:14:41.736Z,99.90
2018-06-01T22:17:09.502Z,99.90
2018-06-01T22:19:37.264Z,99.90
2018-06-01T22:22:05.536Z,99.90
2018-06-01T22:24:33.094Z,99.90
2018-06-01T22:27:02.073Z,99.90
2018-06-01T22:29:29.567Z,99.90
2018-06-01T22:31:57.034Z,99.90
2018-06-01T22:34:24.519Z,99.90
2018-06-01T22:36:52.222Z,99.90
2018-06-01T22:39:21.194Z,99.90
2018-06-01T22:41:48.691Z,99.90
2018-06-01T22:44:17.046Z,99.90
2018-06-01T22:46:44.525Z,99.90
2018-06-01T22:49:12.771Z,99.90
2018-06-01T22:51:40.305Z,99.90
2018-06-01T22:54:07.773Z,99.90
2018-06-01T22:56:35.258Z,99.90
2018-06-01T22:59:02.739Z,99.90
2018-06-01T23:01:30.203Z,99.90
2018-06-01T23:03:57.673Z,99.90
2018-06-01T23:06:25.140Z,99.90
2018-06-01T23:08:52.624Z,99.90
2018-06-01T23:11:20.083Z,99.90
2018-06-01T23:13:47.706Z,99.90
2018-06-01T23:16:15.179Z,99.90
2018-06-01T23:18:42.855Z,99.90
2018-06-01T23:21:10.321Z,99.90
2018-06-01T23:23:37.790Z,99.90
2018-06-01T23:26:05.272Z,99.90
2018-06-01T23:28:32.779Z,99.90
2018-06-01T23:31:00.258Z,99.90
2018-06-01T23:33:27.732Z,99.90
2018-06-01T23:35:55.200Z,99.90
2018-06-01T23:38:22.682Z,99.90
2018-06-01T23:40:50.141Z,99.90
2018-06-01T23:43:17.810Z,99.90
2018-06-01T23:45:45.361Z,99.90
2018-06-01T23:48:12.830Z,99.90
2018-06-01T23:50:40.511Z,99.90
2018-06-01T23:53:07.994Z,99.90
2018-06-01T23:55:35.466Z,99.90
2018-06-01T23:58:02.946Z,99.90
